Time;durP1;ratioP1;P1;durP2;ratioP2;P2;SDS_P1;SDS_P2;PMS_P1;PMS_P2;Temp;Humidity;BMP_temperature;BMP_pressure;BME280_temperature;BME280_humidity;BME280_pressure;Samples;Min_cycle;Max_cycle;Signal;HPM_P1;HPM_P2
2022/09/07 00:00:19;;;;;;;1.70;0.70;;;21.10;91.00;;;;;;5033134;28;20695;-79
2022/09/07 00:02:45;;;;;;;3.90;0.90;;;21.00;92.30;;;;;;5033212;28;20174;-79
2022/09/07 00:05:11;;;;;;;2.67;0.73;;;20.90;93.50;;;;;;5012312;28;21140;-79
2022/09/07 00:07:36;;;;;;;3.20;0.83;;;20.80;94.20;;;;;;5030332;28;20235;-79
2022/09/07 00:10:02;;;;;;;2.70;0.60;;;20.70;95.20;;;;;;5032856;28;20189;-79
2022/09/07 00:12:28;;;;;;;2.73;0.83;;;20.50;95.80;;;;;;5028280;28;20630;-78
2022/09/07 00:14:54;;;;;;;2.73;0.70;;;20.40;97.00;;;;;;5032493;28;20573;-78
2022/09/07 00:17:20;;;;;;;2.83;1.10;;;20.40;98.90;;;;;;5033083;28;20189;-79
2022/09/07 00:19:45;;;;;;;2.80;0.80;;;20.30;99.40;;;;;;5014894;28;20604;-79
2022/09/07 00:22:11;;;;;;;3.10;0.80;;;20.20;99.90;;;;;;5033035;28;20169;-79
2022/09/07 00:24:37;;;;;;;5.00;0.80;;;20.20;99.90;;;;;;5033001;28;20174;-80
2022/09/07 00:27:03;;;;;;;1.90;0.70;;;20.20;99.90;;;;;;5036717;28;20173;-79
2022/09/07 00:29:29;;;;;;;3.33;0.70;;;20.20;99.90;;;;;;5012293;28;20225;-79
2022/09/07 00:31:54;;;;;;;4.70;0.80;;;20.20;99.90;;;;;;5032195;28;20608;-80
2022/09/07 00:34:20;;;;;;;4.47;0.80;;;20.10;99.90;;;;;;5032811;28;20589;-80
2022/09/07 00:36:46;;;;;;;2.70;0.80;;;20.10;99.90;;;;;;5032658;28;20166;-80
2022/09/07 00:39:12;;;;;;;1.83;0.70;;;20.20;99.90;;;;;;5032313;28;21141;-80
2022/09/07 00:41:37;;;;;;;2.57;1.00;;;20.10;99.90;;;;;;5014966;28;20170;-80
2022/09/07 00:44:41;;;;;;;2.17;0.83;;;20.10;99.90;;;;;;5032658;28;20180;-80
2022/09/07 00:47:19;;;;;;;2.23;0.70;;;20.10;99.90;;;;;;5003641;28;20196;-80
2022/09/07 00:49:50;;;;;;;1.60;0.83;;;20.10;99.90;;;;;;5032178;28;20612;-80
2022/09/07 00:52:19;;;;;;;2.37;0.60;;;20.10;99.90;;;;;;5024720;28;20636;-80
2022/09/07 00:54:52;;;;;;;2.43;0.80;;;20.10;99.90;;;;;;5005008;28;20935;-80
2022/09/07 00:57:19;;;;;;;1.60;0.70;;;20.10;99.90;;;;;;5032377;28;20623;-80
2022/09/07 00:59:48;;;;;;;1.80;1.00;;;20.10;99.90;;;;;;5032127;28;20686;-80
2022/09/07 01:02:15;;;;;;;1.83;0.60;;;20.10;99.90;;;;;;5035161;28;20648;-79
2022/09/07 01:04:44;;;;;;;1.60;0.70;;;20.10;99.90;;;;;;5032376;28;20665;-80
2022/09/07 01:07:10;;;;;;;1.70;0.70;;;20.00;99.90;;;;;;5032242;28;20922;-80
2022/09/07 01:09:37;;;;;;;1.50;0.70;;;20.00;99.90;;;;;;5031781;28;20611;-80
2022/09/07 01:12:03;;;;;;;2.23;0.70;;;19.90;99.90;;;;;;4994445;28;20790;-80
2022/09/07 01:14:44;;;;;;;2.47;0.80;;;19.90;99.90;;;;;;5028077;28;20571;-80
2022/09/07 01:17:28;;;;;;;1.50;0.70;;;19.90;99.90;;;;;;5032071;28;20608;-79
2022/09/07 01:20:27;;;;;;;1.80;0.70;;;19.90;99.90;;;;;;5031702;28;20607;-79
2022/09/07 01:23:05;;;;;;;1.50;0.60;;;19.90;99.90;;;;;;5031839;28;20977;-80
2022/09/07 01:25:49;;;;;;;2.93;0.93;;;19.80;99.90;;;;;;5031885;28;20564;-80
2022/09/07 01:28:27;;;;;;;2.47;0.70;;;19.90;99.90;;;;;;4994795;28;20937;-80
2022/09/07 01:31:01;;;;;;;2.87;0.90;;;19.90;99.90;;;;;;5030736;28;20938;-80
2022/09/07 01:33:51;;;;;;;3.20;0.90;;;19.90;99.90;;;;;;5010890;28;21005;-80
2022/09/07 01:36:23;;;;;;;1.70;0.80;;;19.80;99.90;;;;;;5014282;28;20568;-79
2022/09/07 01:39:10;;;;;;;2.47;0.80;;;19.80;99.90;;;;;;5037251;28;20588;-79
2022/09/07 01:42:08;;;;;;;3.00;0.93;;;19.80;99.90;;;;;;5010974;28;20905;-80
2022/09/07 01:44:59;;;;;;;2.27;0.80;;;19.80;99.90;;;;;;5011068;28;20573;-79
2022/09/07 01:47:40;;;;;;;2.40;0.70;;;19.80;99.90;;;;;;5031728;28;20577;-79
2022/09/07 01:50:34;;;;;;;2.90;0.90;;;19.80;99.90;;;;;;5010550;28;20640;-79
2022/09/07 01:53:14;;;;;;;3.00;0.70;;;19.80;99.90;;;;;;5031480;28;20595;-79
2022/09/07 01:55:55;;;;;;;2.60;1.33;;;19.80;99.90;;;;;;5031631;28;20595;-79
2022/09/07 01:58:30;;;;;;;4.73;0.80;;;19.80;99.90;;;;;;5031738;28;20604;-79
2022/09/07 02:01:08;;;;;;;1.87;0.60;;;19.80;99.90;;;;;;5013386;28;20575;-79
2022/09/07 02:03:47;;;;;;;2.90;0.60;;;19.80;99.90;;;;;;5028176;28;20948;-79
2022/09/07 02:06:22;;;;;;;1.80;0.60;;;19.80;99.90;;;;;;5029953;28;20581;-79
2022/09/07 02:08:56;;;;;;;1.30;0.50;;;19.80;99.90;;;;;;5033251;28;20766;-79
2022/09/07 02:11:32;;;;;;;1.97;0.63;;;19.80;99.90;;;;;;5035301;28;20568;-78
2022/09/07 02:14:06;;;;;;;1.93;0.70;;;19.80;99.90;;;;;;5035833;28;20575;-79
2022/09/07 02:16:35;;;;;;;1.87;0.70;;;19.90;99.90;;;;;;5035271;28;21055;-79
2022/09/07 02:19:15;;;;;;;3.50;1.07;;;19.90;99.90;;;;;;5031185;28;20653;-79
2022/09/07 02:21:45;;;;;;;2.20;0.70;;;19.90;99.90;;;;;;5034607;28;20619;-78
2022/09/07 02:24:18;;;;;;;2.70;0.70;;;19.90;99.90;;;;;;5035227;28;20568;-79
2022/09/07 02:26:48;;;;;;;1.87;0.90;;;19.90;99.90;;;;;;5035291;28;21094;-79
2022/09/07 02:29:14;;;;;;;2.37;0.77;;;19.90;99.90;;;;;;5013763;28;20589;-78
2022/09/07 02:31:40;;;;;;;3.10;0.70;;;19.80;99.90;;;;;;5032681;28;20573;-79
2022/09/07 02:34:06;;;;;;;1.97;0.80;;;19.80;99.90;;;;;;5014094;28;20182;-79
2022/09/07 02:36:42;;;;;;;1.47;0.70;;;19.80;99.90;;;;;;5031495;28;20581;-79
2022/09/07 02:39:08;;;;;;;3.70;0.90;;;19.70;99.90;;;;;;5034993;28;20201;-79
2022/09/07 02:41:36;;;;;;;2.13;1.17;;;19.70;99.90;;;;;;5034628;28;20623;-79
2022/09/07 02:44:06;;;;;;;2.07;1.00;;;19.70;99.90;;;;;;5034961;28;20568;-79
2022/09/07 02:46:53;;;;;;;1.70;1.17;;;19.60;99.90;;;;;;5035102;28;21057;-79
2022/09/07 02:49:27;;;;;;;1.80;0.80;;;19.60;99.90;;;;;;5013629;28;20603;-79
2022/09/07 02:51:58;;;;;;;1.80;1.10;;;19.60;99.90;;;;;;5039883;28;20642;-79
2022/09/07 02:54:27;;;;;;;2.70;1.10;;;19.70;99.90;;;;;;5034840;28;20932;-79
2022/09/07 02:56:58;;;;;;;2.10;1.10;;;19.60;99.90;;;;;;5034549;28;20991;-79
2022/09/07 03:00:05;;;;;;;1.73;0.83;;;19.60;99.90;;;;;;5034308;28;20608;-79
2022/09/07 03:02:46;;;;;;;4.63;1.70;;;19.60;99.90;;;;;;5034334;28;20669;-79
2022/09/07 03:05:20;;;;;;;2.00;1.30;;;19.60;99.90;;;;;;5034426;28;20634;-79
2022/09/07 03:07:52;;;;;;;3.30;1.57;;;19.60;99.90;;;;;;5034513;28;20992;-79
2022/09/07 03:10:18;;;;;;;4.43;1.60;;;19.60;99.90;;;;;;5034102;28;20616;-79
2022/09/07 03:12:48;;;;;;;2.90;1.47;;;19.60;99.90;;;;;;5031177;28;20946;-79
2022/09/07 03:15:18;;;;;;;4.30;2.60;;;19.60;99.90;;;;;;5034339;28;20663;-79
2022/09/07 03:17:45;;;;;;;3.00;1.83;;;19.60;99.90;;;;;;5034402;28;20560;-79
2022/09/07 03:20:11;;;;;;;2.93;2.53;;;19.60;99.90;;;;;;5033872;28;20962;-79
2022/09/07 03:22:36;;;;;;;2.07;1.87;;;19.50;99.90;;;;;;5033954;28;20611;-79
2022/09/07 03:25:03;;;;;;;2.20;1.83;;;19.50;99.90;;;;;;5034130;28;21020;-79
2022/09/07 03:27:30;;;;;;;2.47;1.90;;;19.50;99.90;;;;;;5039349;28;20157;-79
2022/09/07 03:29:57;;;;;;;3.20;2.33;;;19.50;99.90;;;;;;5030604;28;20699;-80
2022/09/07 03:32:22;;;;;;;4.10;2.57;;;19.50;99.90;;;;;;5028974;28;20568;-79
2022/09/07 03:34:49;;;;;;;2.93;2.43;;;19.50;99.90;;;;;;5034145;28;20924;-79
2022/09/07 03:37:14;;;;;;;5.80;3.23;;;19.60;99.90;;;;;;5034014;28;20543;-79
2022/09/07 03:39:40;;;;;;;4.30;3.90;;;19.50;99.90;;;;;;5017432;28;20631;-79
2022/09/07 03:42:06;;;;;;;3.20;2.90;;;19.50;99.90;;;;;;5033598;28;20276;-79
2022/09/07 03:44:32;;;;;;;2.63;1.90;;;19.50;99.90;;;;;;5034018;28;20269;-79
2022/09/07 03:46:57;;;;;;;2.40;2.20;;;19.50;99.90;;;;;;5012885;28;20182;-79
2022/09/07 03:49:23;;;;;;;2.67;2.23;;;19.40;99.90;;;;;;5028495;28;20185;-79
2022/09/07 03:51:49;;;;;;;3.03;2.03;;;19.40;99.90;;;;;;5033741;28;20181;-79
2022/09/07 03:54:14;;;;;;;3.40;1.10;;;19.40;99.90;;;;;;5029669;28;20668;-79
2022/09/07 03:56:40;;;;;;;4.07;1.53;;;19.30;99.90;;;;;;5031260;28;20197;-79
2022/09/07 03:59:06;;;;;;;2.20;1.30;;;19.30;99.90;;;;;;5033471;28;20186;-79
2022/09/07 04:01:32;;;;;;;2.80;0.90;;;19.30;99.90;;;;;;5033123;28;20197;-80
2022/09/07 04:03:58;;;;;;;3.27;1.43;;;19.30;99.90;;;;;;5034666;28;20178;-79
2022/09/07 04:06:24;;;;;;;2.20;1.20;;;19.30;99.90;;;;;;5012665;28;20651;-80
2022/09/07 04:08:50;;;;;;;1.87;0.93;;;19.30;99.90;;;;;;5032271;28;20589;-80
2022/09/07 04:11:17;;;;;;;2.10;1.00;;;19.30;99.90;;;;;;5033230;28;20718;-80
2022/09/07 04:13:44;;;;;;;1.70;1.00;;;19.30;99.90;;;;;;5033622;28;20174;-79
2022/09/07 04:16:19;;;;;;;2.03;1.10;;;19.30;99.90;;;;;;5035181;28;20569;-79
2022/09/07 04:18:45;;;;;;;3.10;1.20;;;19.30;99.90;;;;;;5016653;28;20576;-80
2022/09/07 04:21:11;;;;;;;3.30;1.23;;;19.30;99.90;;;;;;5014486;28;20706;-79
2022/09/07 04:23:41;;;;;;;2.17;1.13;;;19.30;99.90;;;;;;5033585;28;21141;-78
2022/09/07 04:26:28;;;;;;;2.90;1.30;;;19.30;99.90;;;;;;5034295;28;20995;-79
2022/09/07 04:28:55;;;;;;;5.70;1.40;;;19.40;99.90;;;;;;5014872;28;20608;-78
2022/09/07 04:31:21;;;;;;;2.97;1.47;;;19.30;99.90;;;;;;5032633;28;20592;-81
2022/09/07 04:33:49;;;;;;;1.80;1.23;;;19.40;99.90;;;;;;5032920;28;20576;-80
2022/09/07 04:36:17;;;;;;;1.73;1.17;;;19.40;99.90;;;;;;5033000;28;20576;-80
2022/09/07 04:38:43;;;;;;;2.73;1.20;;;19.40;99.90;;;;;;5032906;28;20564;-80
2022/09/07 04:41:12;;;;;;;2.00;1.40;;;19.40;99.90;;;;;;5016117;28;20944;-80
2022/09/07 04:43:39;;;;;;;3.37;1.80;;;19.40;99.90;;;;;;5029529;28;20668;-80
2022/09/07 04:46:14;;;;;;;3.37;1.83;;;19.40;99.90;;;;;;5032537;28;20567;-80
2022/09/07 04:48:40;;;;;;;4.00;1.87;;;19.40;99.90;;;;;;5014850;28;20614;-80
2022/09/07 04:51:07;;;;;;;3.00;1.53;;;19.40;99.90;;;;;;5033667;28;20564;-80
2022/09/07 04:53:34;;;;;;;3.60;1.70;;;19.40;99.90;;;;;;5035488;28;20169;-78
2022/09/07 04:56:00;;;;;;;6.00;2.07;;;19.50;99.90;;;;;;5032969;28;20568;-79
2022/09/07 04:58:26;;;;;;;2.50;1.73;;;19.50;99.90;;;;;;5011374;28;20601;-79
2022/09/07 05:00:52;;;;;;;3.43;3.00;;;19.40;99.90;;;;;;5013733;28;20644;-79
2022/09/07 05:03:18;;;;;;;7.70;3.30;;;19.40;99.90;;;;;;5032311;28;20315;-79
2022/09/07 05:05:44;;;;;;;7.83;2.80;;;19.40;99.90;;;;;;5032441;28;20177;-79
2022/09/07 05:08:10;;;;;;;4.07;2.87;;;19.40;99.90;;;;;;5011400;28;20667;-79
2022/09/07 05:10:36;;;;;;;3.33;2.90;;;19.40;99.90;;;;;;5029270;28;20554;-80
2022/09/07 05:13:02;;;;;;;3.80;2.37;;;19.40;99.90;;;;;;5032374;28;20647;-80
2022/09/07 05:15:29;;;;;;;3.53;2.00;;;19.40;99.90;;;;;;4999039;28;20205;-79
2022/09/07 05:17:58;;;;;;;3.70;2.77;;;19.40;99.90;;;;;;5035879;28;20167;-79
2022/09/07 05:20:24;;;;;;;6.87;3.50;;;19.40;99.90;;;;;;5031776;28;20604;-79
2022/09/07 05:22:58;;;;;;;5.77;3.37;;;19.40;99.90;;;;;;5031843;28;20719;-79
2022/09/07 05:25:26;;;;;;;3.30;2.30;;;19.40;99.90;;;;;;5011055;28;20986;-79
2022/09/07 05:27:52;;;;;;;3.93;3.13;;;19.40;99.90;;;;;;5005600;28;20586;-79
2022/09/07 05:30:18;;;;;;;5.10;3.20;;;19.50;99.90;;;;;;5024112;28;20620;-79
2022/09/07 05:32:45;;;;;;;6.03;3.73;;;19.50;99.90;;;;;;5031847;28;20896;-79
2022/09/07 05:35:11;;;;;;;3.20;2.90;;;19.50;99.90;;;;;;5011003;28;20576;-79
2022/09/07 05:37:37;;;;;;;4.47;3.83;;;19.50;99.90;;;;;;5011388;28;20573;-79
2022/09/07 05:40:04;;;;;;;6.47;3.90;;;19.50;99.90;;;;;;5031414;28;20643;-80
2022/09/07 05:42:30;;;;;;;5.17;4.40;;;19.50;99.90;;;;;;5031525;28;20957;-80
2022/09/07 05:44:56;;;;;;;4.50;4.10;;;19.60;99.90;;;;;;5013866;28;20926;-80
2022/09/07 05:47:22;;;;;;;6.57;5.87;;;19.60;99.90;;;;;;5027250;28;20905;-80
2022/09/07 05:49:48;;;;;;;7.13;6.13;;;19.50;99.90;;;;;;5029954;28;20672;-80
2022/09/07 05:52:14;;;;;;;6.33;5.70;;;19.50;99.90;;;;;;5032616;28;20735;-79
2022/09/07 05:54:39;;;;;;;7.70;5.73;;;19.50;99.90;;;;;;5014415;28;20261;-79
2022/09/07 05:57:06;;;;;;;8.50;7.27;;;19.60;99.90;;;;;;5032118;28;21287;-80
2022/09/07 05:59:32;;;;;;;8.40;7.20;;;19.60;99.90;;;;;;5032330;28;20671;-80
2022/09/07 06:01:58;;;;;;;6.87;6.17;;;19.70;99.90;;;;;;5032479;28;21005;-80
2022/09/07 06:04:24;;;;;;;7.00;5.93;;;19.70;99.90;;;;;;5031383;28;20574;-80
2022/09/07 06:06:50;;;;;;;7.00;5.07;;;19.80;99.90;;;;;;5031423;28;20565;-79
2022/09/07 06:09:15;;;;;;;6.20;5.10;;;19.90;99.90;;;;;;5033409;28;20181;-80
2022/09/07 06:11:41;;;;;;;7.63;6.80;;;20.00;99.90;;;;;;5015999;28;20235;-80
2022/09/07 06:14:08;;;;;;;7.00;6.40;;;20.10;99.90;;;;;;5031949;28;20213;-80
2022/09/07 06:16:34;;;;;;;8.27;7.53;;;20.10;99.90;;;;;;5031662;28;20604;-80
2022/09/07 06:19:05;;;;;;;6.50;5.90;;;20.30;99.90;;;;;;5031421;28;20692;-80
2022/09/07 06:21:35;;;;;;;7.97;7.07;;;20.30;99.90;;;;;;5031038;28;20251;-80
2022/09/07 06:24:01;;;;;;;8.53;7.70;;;20.50;99.90;;;;;;5031202;28;20568;-80
2022/09/07 06:26:27;;;;;;;9.60;8.70;;;20.60;99.90;;;;;;5032221;28;20580;-80
2022/09/07 06:28:53;;;;;;;8.23;7.43;;;20.70;99.90;;;;;;5035527;28;20634;-80
2022/09/07 06:31:20;;;;;;;8.63;7.73;;;20.80;99.90;;;;;;5054486;23;20555;-74
2022/09/07 06:33:47;;;;;;;9.03;8.17;;;21.00;99.90;;;;;;4981793;28;20764;-77
2022/09/07 06:36:21;;;;;;;9.23;8.33;;;21.10;99.90;;;;;;4972410;28;20905;-76
2022/09/07 06:38:48;;;;;;;9.43;8.47;;;21.10;99.90;;;;;;4972351;28;20562;-76
2022/09/07 06:41:20;;;;;;;9.73;8.50;;;21.20;99.90;;;;;;4969962;28;20917;-76
2022/09/07 06:43:46;;;;;;;9.10;8.23;;;21.20;99.90;;;;;;4951901;29;21190;-76
2022/09/07 06:46:13;;;;;;;8.30;7.60;;;21.30;99.90;;;;;;4951801;28;20603;-76
2022/09/07 06:48:39;;;;;;;8.93;7.77;;;21.50;99.90;;;;;;4953037;29;20579;-76
2022/09/07 06:51:25;;;;;;;8.47;7.57;;;21.80;99.90;;;;;;4953073;29;20899;-75
2022/09/07 06:53:55;;;;;;;7.50;6.70;;;22.00;99.90;;;;;;4935961;29;20200;-75
2022/09/07 06:56:22;;;;;;;7.63;7.00;;;22.20;99.90;;;;;;4952966;29;20556;-75
2022/09/07 06:58:53;;;;;;;6.93;6.23;;;22.30;99.90;;;;;;4951690;29;20576;-75
2022/09/07 07:01:22;;;;;;;11.43;7.40;;;22.40;99.90;;;;;;4951401;28;20619;-76
2022/09/07 07:03:49;;;;;;;7.80;7.10;;;22.50;99.90;;;;;;4935751;29;20576;-75
2022/09/07 07:06:15;;;;;;;6.80;6.30;;;22.60;99.90;;;;;;4952732;28;20568;-75
2022/09/07 07:08:41;;;;;;;6.73;6.10;;;22.70;99.90;;;;;;4955053;29;20595;-75
2022/09/07 07:11:09;;;;;;;6.57;5.97;;;22.80;99.90;;;;;;4955947;29;21012;-76
2022/09/07 07:13:36;;;;;;;6.80;5.93;;;22.80;99.90;;;;;;4956327;29;20579;-74
2022/09/07 07:16:13;;;;;;;8.57;6.60;;;22.90;99.90;;;;;;4955053;28;20994;-75
2022/09/07 07:18:39;;;;;;;6.33;5.73;;;23.00;99.90;;;;;;4939226;29;20992;-74
2022/09/07 07:21:08;;;;;;;7.80;6.37;;;23.60;99.90;;;;;;4955767;29;20591;-75
2022/09/07 07:23:34;;;;;;;5.50;5.00;;;24.30;99.90;;;;;;4955995;28;20654;-75
2022/09/07 07:26:01;;;;;;;6.80;4.90;;;25.00;99.90;;;;;;4956007;29;20607;-75
2022/09/07 07:28:27;;;;;;;5.00;4.50;;;25.80;99.90;;;;;;4956029;29;20575;-75
2022/09/07 07:30:55;;;;;;;4.43;4.03;;;26.50;99.90;;;;;;4954502;29;20950;-75
2022/09/07 07:33:20;;;;;;;5.40;4.90;;;27.10;99.90;;;;;;4955971;28;20216;-75
2022/09/07 07:35:46;;;;;;;4.33;3.93;;;27.50;99.90;;;;;;4955991;29;20623;-75
2022/09/07 07:38:12;;;;;;;4.43;4.03;;;27.90;99.90;;;;;;4956173;29;20168;-75
2022/09/07 07:40:38;;;;;;;6.03;4.30;;;28.20;99.90;;;;;;4955568;29;20177;-75
2022/09/07 07:43:04;;;;;;;5.43;4.93;;;28.30;99.90;;;;;;4955678;28;20662;-75
2022/09/07 07:45:29;;;;;;;4.47;4.10;;;28.40;99.90;;;;;;4954398;29;20165;-75
2022/09/07 07:47:55;;;;;;;3.47;3.10;;;28.70;99.90;;;;;;4955727;29;20192;-75
2022/09/07 07:50:21;;;;;;;4.60;4.20;;;29.10;99.90;;;;;;4955427;29;20173;-75
2022/09/07 07:52:47;;;;;;;3.73;3.20;;;29.40;99.90;;;;;;4938072;29;20212;-75
2022/09/07 07:55:12;;;;;;;4.50;3.77;;;29.80;99.90;;;;;;4954215;29;20235;-76
2022/09/07 07:57:38;;;;;;;3.40;2.90;;;30.40;99.90;;;;;;4955546;29;20168;-76
2022/09/07 08:00:05;;;;;;;4.17;2.73;;;31.00;99.90;;;;;;4955267;29;20169;-76
2022/09/07 08:02:37;;;;;;;3.40;2.70;;;31.40;99.90;;;;;;4955260;28;20188;-76
2022/09/07 08:05:03;;;;;;;7.63;3.00;;;31.70;99.90;;;;;;4955448;29;21124;-76
2022/09/07 08:07:28;;;;;;;2.47;2.27;;;31.80;99.90;;;;;;4955338;29;20172;-76
2022/09/07 08:09:56;;;;;;;2.80;2.10;;;32.10;99.90;;;;;;4955055;29;20600;-76
2022/09/07 08:12:22;;;;;;;4.20;2.70;;;32.40;99.90;;;;;;4954831;28;20209;-76
2022/09/07 08:14:48;;;;;;;2.87;2.40;;;32.80;99.90;;;;;;4955267;29;21099;-76
2022/09/07 08:17:16;;;;;;;5.40;3.73;;;33.20;99.90;;;;;;4953214;28;20209;-76
2022/09/07 08:19:42;;;;;;;2.13;1.73;;;33.60;99.90;;;;;;4953571;29;20201;-76
2022/09/07 08:22:09;;;;;;;5.07;2.43;;;34.00;99.90;;;;;;4954855;28;20617;-76
2022/09/07 08:24:35;;;;;;;3.73;1.70;;;34.40;99.90;;;;;;4953855;29;20583;-76
2022/09/07 08:27:01;;;;;;;3.37;1.80;;;34.80;99.70;;;;;;4955167;29;20695;-76
2022/09/07 08:29:27;;;;;;;2.57;1.60;;;35.20;98.60;;;;;;4953369;29;20563;-76
2022/09/07 08:31:52;;;;;;;3.80;1.83;;;35.50;97.60;;;;;;4955495;28;20212;-76
2022/09/07 08:34:18;;;;;;;3.13;1.83;;;36.00;96.60;;;;;;4954778;29;20630;-76
2022/09/07 08:36:44;;;;;;;3.13;1.83;;;36.40;95.50;;;;;;4954759;29;20183;-76
2022/09/07 08:39:10;;;;;;;2.40;1.60;;;36.50;93.90;;;;;;4969430;28;20267;-76
2022/09/07 08:41:54;;;;;;;2.77;1.97;;;36.50;92.30;;;;;;4969482;28;20199;-76
2022/09/07 08:44:34;;;;;;;2.90;1.37;;;36.40;90.80;;;;;;4954758;29;20175;-76
2022/09/07 08:47:21;;;;;;;2.00;1.03;;;36.30;90.20;;;;;;4954589;29;20580;-76
2022/09/07 08:50:15;;;;;;;2.90;1.77;;;36.20;90.00;;;;;;4954299;29;20636;-75
2022/09/07 08:52:44;;;;;;;1.73;1.20;;;36.00;89.30;;;;;;4969158;28;21219;-76
2022/09/07 08:55:15;;;;;;;1.90;0.90;;;35.50;86.50;;;;;;4954412;28;20566;-76
2022/09/07 08:57:49;;;;;;;1.80;0.90;;;35.10;84.40;;;;;;4969313;28;20579;-75
2022/09/07 09:00:17;;;;;;;2.60;1.00;;;34.50;83.20;;;;;;4954165;28;20576;-76
2022/09/07 09:02:43;;;;;;;1.70;0.80;;;34.20;85.40;;;;;;4954206;28;21191;-75
2022/09/07 09:05:21;;;;;;;2.80;0.77;;;34.40;88.80;;;;;;4954298;29;20579;-76
2022/09/07 09:08:10;;;;;;;4.23;0.70;;;34.60;89.30;;;;;;4954286;28;20179;-76
2022/09/07 09:10:52;;;;;;;1.83;0.70;;;35.10;88.80;;;;;;4952775;29;20670;-76
2022/09/07 09:13:37;;;;;;;2.20;0.60;;;35.40;88.00;;;;;;4954059;28;20658;-77
2022/09/07 09:16:19;;;;;;;1.40;0.70;;;35.80;86.60;;;;;;4969086;28;20608;-76
2022/09/07 09:19:00;;;;;;;2.23;0.80;;;36.40;86.90;;;;;;4952947;29;21125;-76
2022/09/07 09:21:26;;;;;;;1.97;0.67;;;37.00;84.70;;;;;;4953634;28;20583;-77
2022/09/07 09:23:59;;;;;;;2.90;0.80;;;37.60;84.40;;;;;;4953932;28;20615;-75
2022/09/07 09:26:28;;;;;;;1.57;0.70;;;38.20;83.30;;;;;;4954022;28;20635;-75
2022/09/07 09:28:54;;;;;;;4.50;0.80;;;38.90;80.40;;;;;;4953727;28;20567;-76
2022/09/07 09:31:24;;;;;;;1.50;0.70;;;39.40;77.40;;;;;;4951944;28;20576;-76
2022/09/07 09:34:08;;;;;;;2.47;0.70;;;39.90;74.60;;;;;;4980808;28;20651;-76
2022/09/07 09:36:41;;;;;;;1.57;0.60;;;40.40;71.80;;;;;;4975143;28;20566;-76
2022/09/07 09:39:33;;;;;;;1.40;0.60;;;40.80;67.60;;;;;;4992396;28;20920;-76
2022/09/07 09:42:12;;;;;;;1.93;0.70;;;41.00;66.10;;;;;;4989108;28;20739;-76
2022/09/07 09:44:38;;;;;;;1.30;0.60;;;41.30;62.70;;;;;;4984308;28;20652;-76
2022/09/07 09:47:05;;;;;;;1.30;0.50;;;41.30;61.80;;;;;;4988853;28;21055;-76
2022/09/07 09:49:38;;;;;;;2.67;0.70;;;41.20;59.90;;;;;;4969208;28;20945;-76
2022/09/07 09:52:16;;;;;;;2.20;0.90;;;41.20;58.60;;;;;;4953296;28;20769;-76
2022/09/07 09:54:47;;;;;;;1.90;0.70;;;41.20;57.80;;;;;;4984370;28;20686;-76
2022/09/07 09:57:36;;;;;;;1.77;0.60;;;41.30;58.40;;;;;;4992250;28;21283;-76
2022/09/07 10:00:04;;;;;;;1.93;0.60;;;41.40;56.70;;;;;;4991903;28;20578;-76
2022/09/07 10:02:37;;;;;;;2.67;0.57;;;41.70;57.30;;;;;;4992033;28;20708;-76
2022/09/07 10:05:41;;;;;;;1.70;0.70;;;41.90;56.50;;;;;;4990911;28;20662;-76
2022/09/07 10:08:21;;;;;;;2.20;0.70;;;42.10;55.90;;;;;;4992152;28;20206;-76
2022/09/07 10:10:51;;;;;;;1.60;0.80;;;42.40;55.30;;;;;;4974462;28;21045;-76
2022/09/07 10:13:21;;;;;;;1.50;0.60;;;42.40;53.80;;;;;;4990770;28;20633;-76
2022/09/07 10:15:54;;;;;;;1.60;0.70;;;42.40;53.20;;;;;;4990659;28;20579;-76
2022/09/07 10:18:40;;;;;;;1.97;0.70;;;42.30;52.00;;;;;;4974841;28;20728;-76
2022/09/07 10:21:27;;;;;;;3.23;0.70;;;42.10;51.20;;;;;;4991476;28;20570;-76
2022/09/07 10:24:22;;;;;;;1.80;0.63;;;42.00;52.20;;;;;;4974618;28;20566;-77
2022/09/07 10:26:47;;;;;;;2.53;0.60;;;42.00;52.20;;;;;;4990689;28;20938;-76
2022/09/07 10:29:34;;;;;;;2.93;0.80;;;41.90;50.90;;;;;;4990438;28;20558;-76
2022/09/07 10:32:24;;;;;;;1.87;0.80;;;41.90;51.10;;;;;;4991804;28;20199;-75
2022/09/07 10:35:04;;;;;;;1.80;0.77;;;41.90;51.00;;;;;;4991930;28;20559;-75
2022/09/07 10:37:50;;;;;;;1.57;0.60;;;41.80;50.10;;;;;;4974620;28;20566;-76
2022/09/07 10:40:27;;;;;;;2.80;0.77;;;41.30;49.40;;;;;;4991076;28;20582;-75
2022/09/07 10:43:03;;;;;;;3.00;0.90;;;40.60;48.50;;;;;;4995409;28;20606;-76
2022/09/07 10:45:47;;;;;;;4.00;0.80;;;39.90;48.60;;;;;;4994511;28;20582;-76
2022/09/07 10:48:57;;;;;;;2.47;0.80;;;39.10;48.40;;;;;;4995704;28;20562;-76
2022/09/07 10:51:36;;;;;;;1.50;0.60;;;38.20;49.20;;;;;;4968980;28;20920;-75
2022/09/07 10:54:25;;;;;;;2.37;0.60;;;37.20;49.10;;;;;;4995583;28;20857;-76
2022/09/07 10:57:18;;;;;;;2.80;0.70;;;36.50;50.20;;;;;;4994365;28;20937;-76
2022/09/07 11:00:03;;;;;;;1.40;0.60;;;35.90;51.10;;;;;;4995316;28;20564;-76
2022/09/07 11:02:38;;;;;;;2.00;0.60;;;35.50;51.60;;;;;;4977855;28;20595;-75
2022/09/07 11:05:45;;;;;;;1.73;0.67;;;35.10;52.00;;;;;;4995432;28;20569;-76
2022/09/07 11:08:26;;;;;;;1.70;0.70;;;34.60;52.20;;;;;;4995433;28;20667;-75
2022/09/07 11:11:04;;;;;;;2.37;1.20;;;34.10;52.50;;;;;;4995027;28;20573;-75
2022/09/07 11:13:35;;;;;;;4.17;1.20;;;33.50;52.90;;;;;;4995035;28;20640;-76
2022/09/07 11:16:06;;;;;;;3.53;1.00;;;33.10;53.40;;;;;;4995176;28;20951;-75
2022/09/07 11:18:51;;;;;;;2.47;1.13;;;32.80;54.90;;;;;;4995187;28;20578;-77
2022/09/07 11:21:24;;;;;;;3.60;2.40;;;32.70;56.10;;;;;;4977170;28;20578;-75
2022/09/07 11:23:58;;;;;;;8.90;7.50;;;32.90;57.40;;;;;;4995074;28;20603;-75
2022/09/07 11:26:28;;;;;;;4.40;3.50;;;33.20;57.70;;;;;;4995020;28;20930;-75
2022/09/07 11:29:14;;;;;;;2.60;1.73;;;33.50;57.60;;;;;;4994933;28;20572;-75
2022/09/07 11:31:46;;;;;;;2.47;1.43;;;33.80;57.20;;;;;;4993818;28;20652;-75
2022/09/07 11:34:23;;;;;;;3.10;1.10;;;34.20;57.40;;;;;;4994723;28;20585;-76
2022/09/07 11:37:16;;;;;;;1.90;0.87;;;34.60;57.40;;;;;;4993632;28;20565;-75
2022/09/07 11:39:50;;;;;;;1.50;0.90;;;34.80;56.90;;;;;;4993251;28;20613;-76
2022/09/07 11:42:15;;;;;;;1.60;0.73;;;35.10;56.10;;;;;;4994653;28;20753;-77
2022/09/07 11:44:53;;;;;;;4.03;0.73;;;35.20;56.50;;;;;;4994733;28;20609;-76
2022/09/07 11:47:26;;;;;;;2.30;0.70;;;35.40;56.10;;;;;;4994765;28;20178;-76
2022/09/07 11:49:54;;;;;;;1.60;0.70;;;35.30;55.40;;;;;;4992948;28;21003;-76
2022/09/07 11:52:41;;;;;;;4.40;0.80;;;35.30;55.50;;;;;;4993305;28;20639;-76
2022/09/07 11:55:19;;;;;;;1.70;0.70;;;35.10;55.20;;;;;;4994435;28;20590;-76
2022/09/07 11:58:13;;;;;;;2.27;0.80;;;34.90;54.90;;;;;;4994552;28;20622;-76
2022/09/07 12:01:04;;;;;;;2.33;0.90;;;34.50;54.60;;;;;;4994097;28;20566;-74
2022/09/07 12:04:15;;;;;;;1.60;0.80;;;34.20;55.00;;;;;;4994171;28;20950;-75
2022/09/07 12:07:08;;;;;;;1.83;1.00;;;33.90;55.90;;;;;;4994354;28;20558;-75
2022/09/07 12:09:52;;;;;;;3.67;1.37;;;33.90;56.50;;;;;;4994166;28;20595;-76
2022/09/07 12:12:48;;;;;;;1.50;0.80;;;33.80;56.00;;;;;;4992972;28;20640;-76
2022/09/07 12:15:39;;;;;;;3.17;0.87;;;33.70;55.80;;;;;;4994138;28;20564;-76
2022/09/07 12:18:31;;;;;;;2.93;1.03;;;33.50;55.40;;;;;;4994154;28;20604;-76
2022/09/07 12:20:56;;;;;;;2.23;0.80;;;33.20;55.50;;;;;;4993613;28;20580;-76
2022/09/07 12:23:29;;;;;;;2.00;1.00;;;33.10;55.90;;;;;;4986814;28;20616;-76
2022/09/07 12:26:37;;;;;;;1.77;0.77;;;32.90;56.40;;;;;;4983191;28;20967;-76
2022/09/07 12:29:17;;;;;;;3.20;1.40;;;32.70;56.60;;;;;;4985733;28;21151;-76
2022/09/07 12:31:45;;;;;;;2.37;0.90;;;32.60;56.60;;;;;;4992154;28;20634;-76
2022/09/07 12:34:29;;;;;;;1.60;0.90;;;32.40;56.80;;;;;;5054688;23;20663;-79
2022/09/07 12:37:22;;;;;;;2.77;0.90;;;32.10;56.90;;;;;;5042013;28;20580;-79
2022/09/07 12:39:47;;;;;;;2.17;1.00;;;32.00;57.00;;;;;;5023495;28;20596;-79
2022/09/07 12:42:22;;;;;;;1.43;0.77;;;31.80;57.10;;;;;;5037673;28;20583;-79
2022/09/07 12:45:07;;;;;;;3.07;1.30;;;31.70;57.30;;;;;;5020433;28;20173;-79
2022/09/07 12:47:33;;;;;;;3.93;0.80;;;31.60;57.80;;;;;;5026939;28;20594;-79
2022/09/07 12:50:23;;;;;;;2.17;0.80;;;31.50;57.90;;;;;;5022343;28;20696;-79
2022/09/07 12:53:16;;;;;;;2.60;0.90;;;31.50;58.20;;;;;;5013511;28;20580;-78
2022/09/07 12:55:57;;;;;;;2.37;1.40;;;31.50;58.00;;;;;;5023897;28;20612;-79
2022/09/07 12:58:33;;;;;;;2.70;1.10;;;31.50;57.80;;;;;;5019300;28;20726;-79
2022/09/07 13:01:22;;;;;;;2.10;1.10;;;31.50;57.60;;;;;;5014593;28;20658;-78
2022/09/07 13:04:12;;;;;;;2.00;1.27;;;31.40;57.40;;;;;;5037246;28;20604;-79
2022/09/07 13:07:16;;;;;;;2.13;0.73;;;31.40;57.30;;;;;;5032635;28;20587;-79
2022/09/07 13:09:55;;;;;;;1.70;1.10;;;31.30;57.00;;;;;;5031900;28;20954;-78
2022/09/07 13:12:29;;;;;;;3.97;1.13;;;31.30;57.00;;;;;;5032001;28;20666;-79
2022/09/07 13:14:56;;;;;;;1.73;0.90;;;31.10;56.90;;;;;;5032219;28;20970;-78
2022/09/07 13:17:30;;;;;;;3.63;0.83;;;31.00;56.80;;;;;;5032375;28;20563;-78